Time;durP1;ratioP1;P1;durP2;ratioP2;P2;SDS_P1;SDS_P2;PMS_P1;PMS_P2;Temp;Humidity;BMP_temperature;BMP_pressure;BME280_temperature;BME280_humidity;BME280_pressure;Samples;Min_cycle;Max_cycle;Signal;HPM_P1;HPM_P2
2023/11/21 00:02:06;;;;;;;1.60;1.20;;;8.70;98.20;;;;;;5042703;28;20991;-85
2023/11/21 00:04:33;;;;;;;1.60;1.20;;;8.70;98.20;;;;;;5045662;28;20837;-85
2023/11/21 00:07:00;;;;;;;1.60;1.17;;;8.70;98.20;;;;;;5049293;28;20482;-85
2023/11/21 00:09:28;;;;;;;1.80;1.40;;;8.60;98.20;;;;;;5054710;28;20494;-84
2023/11/21 00:11:55;;;;;;;1.67;1.30;;;8.60;98.20;;;;;;5047613;28;20489;-84
2023/11/21 00:14:22;;;;;;;1.60;1.20;;;8.60;98.20;;;;;;5055276;28;20454;-84
2023/11/21 00:16:48;;;;;;;1.60;1.23;;;8.60;98.20;;;;;;5040396;28;20512;-85
2023/11/21 00:19:16;;;;;;;1.60;1.30;;;8.60;98.20;;;;;;5045225;28;20478;-85
2023/11/21 00:21:44;;;;;;;1.70;1.30;;;8.70;98.20;;;;;;5034882;28;21068;-83
2023/11/21 00:24:13;;;;;;;1.60;1.20;;;8.70;98.20;;;;;;5056275;28;20981;-85
2023/11/21 00:26:41;;;;;;;2.43;2.23;;;8.70;98.20;;;;;;5038289;28;20664;-84
2023/11/21 00:29:08;;;;;;;1.60;1.10;;;8.80;98.20;;;;;;5043302;28;20493;-85
2023/11/21 00:31:35;;;;;;;1.60;1.20;;;8.80;98.20;;;;;;5038784;28;20485;-85
2023/11/21 00:34:03;;;;;;;1.60;1.20;;;8.80;98.20;;;;;;5062065;28;20463;-86
2023/11/21 00:36:30;;;;;;;1.60;1.20;;;8.80;98.20;;;;;;5044939;28;20524;-85
2023/11/21 00:38:57;;;;;;;1.67;1.30;;;8.80;98.20;;;;;;5064910;28;21075;-85
2023/11/21 00:41:24;;;;;;;1.60;1.10;;;8.80;98.20;;;;;;5047886;28;20484;-85
2023/11/21 00:43:52;;;;;;;1.60;1.20;;;8.80;98.20;;;;;;5064135;28;20458;-85
2023/11/21 00:46:19;;;;;;;1.63;1.20;;;8.80;98.20;;;;;;5047544;28;20484;-85
2023/11/21 00:48:46;;;;;;;1.60;1.20;;;8.80;98.20;;;;;;5076382;28;20497;-82
2023/11/21 00:51:12;;;;;;;1.60;1.10;;;8.80;98.20;;;;;;5068215;22;21008;-79
2023/11/21 00:53:39;;;;;;;1.60;1.20;;;8.80;98.20;;;;;;5049617;28;21009;-79
2023/11/21 00:56:08;;;;;;;1.67;1.27;;;8.70;98.20;;;;;;5035503;28;20553;-79
2023/11/21 00:58:35;;;;;;;1.60;1.20;;;8.70;98.20;;;;;;5057698;28;20505;-80
2023/11/21 01:01:03;;;;;;;1.60;1.20;;;8.70;98.20;;;;;;5033514;28;20506;-79
2023/11/21 01:03:30;;;;;;;1.60;1.20;;;8.70;98.20;;;;;;5048580;28;20501;-79
2023/11/21 01:05:57;;;;;;;5.30;3.30;;;8.70;98.20;;;;;;5037386;28;20470;-80
2023/11/21 01:08:24;;;;;;;1.60;1.20;;;8.70;98.20;;;;;;5055761;28;20489;-79
2023/11/21 01:10:51;;;;;;;1.67;1.20;;;8.70;98.20;;;;;;5033502;28;20909;-80
2023/11/21 01:13:18;;;;;;;1.67;1.30;;;8.70;98.20;;;;;;5050284;28;20454;-80
2023/11/21 01:15:45;;;;;;;1.60;1.20;;;8.70;98.20;;;;;;5048950;28;20474;-80
2023/11/21 01:18:13;;;;;;;1.60;1.20;;;8.70;98.20;;;;;;5040018;28;20478;-80
2023/11/21 01:20:41;;;;;;;1.60;1.20;;;8.70;98.20;;;;;;5052019;28;20486;-79
2023/11/21 01:23:07;;;;;;;1.70;1.30;;;8.70;98.20;;;;;;5047624;28;20494;-79
2023/11/21 01:25:34;;;;;;;1.60;1.20;;;8.70;98.20;;;;;;5043587;28;20458;-79
2023/11/21 01:28:01;;;;;;;1.67;1.27;;;8.70;98.20;;;;;;5039727;28;20486;-80
2023/11/21 01:30:28;;;;;;;1.60;1.20;;;8.70;98.20;;;;;;5035425;28;20573;-80
2023/11/21 01:32:54;;;;;;;1.63;1.33;;;8.70;98.20;;;;;;5051812;28;20482;-79
2023/11/21 01:35:23;;;;;;;1.60;1.20;;;8.70;98.20;;;;;;5049289;28;20492;-80
2023/11/21 01:37:49;;;;;;;1.63;1.30;;;8.70;98.20;;;;;;5043397;28;20553;-79
2023/11/21 01:40:16;;;;;;;1.60;1.20;;;8.70;98.20;;;;;;5041389;28;20465;-80
2023/11/21 01:42:44;;;;;;;1.60;1.13;;;8.60;98.20;;;;;;5041978;28;20569;-79
2023/11/21 01:45:12;;;;;;;1.60;1.20;;;8.60;98.20;;;;;;5046954;28;20467;-80
2023/11/21 01:47:39;;;;;;;1.60;1.20;;;8.60;98.20;;;;;;5034695;28;20561;-80
2023/11/21 01:50:08;;;;;;;1.60;1.20;;;8.50;98.20;;;;;;5041943;28;20463;-79
2023/11/21 01:52:37;;;;;;;1.63;1.20;;;8.50;98.20;;;;;;5041950;28;21102;-80
2023/11/21 01:55:06;;;;;;;1.63;1.30;;;8.40;98.20;;;;;;5043044;28;20462;-80
2023/11/21 01:57:33;;;;;;;1.63;1.20;;;8.40;98.20;;;;;;5044328;28;20486;-80
2023/11/21 02:00:10;;;;;;;1.60;1.20;;;8.30;98.20;;;;;;5046624;28;20497;-79
2023/11/21 02:02:37;;;;;;;1.60;1.20;;;8.30;98.20;;;;;;5039673;28;20598;-79
2023/11/21 02:05:05;;;;;;;1.60;1.30;;;8.20;98.20;;;;;;5041977;28;21055;-79
2023/11/21 02:07:32;;;;;;;1.63;1.30;;;8.20;98.20;;;;;;5041922;28;20480;-79
2023/11/21 02:10:00;;;;;;;2.33;2.13;;;8.20;98.20;;;;;;5048799;28;20573;-79
2023/11/21 02:12:27;;;;;;;1.60;1.23;;;8.20;98.20;;;;;;5036320;28;20496;-80
2023/11/21 02:14:55;;;;;;;1.60;1.20;;;8.20;98.20;;;;;;5044904;28;20887;-80
2023/11/21 02:17:23;;;;;;;1.60;1.20;;;8.20;98.20;;;;;;5045653;28;20486;-80
2023/11/21 02:19:51;;;;;;;1.60;1.20;;;8.20;98.20;;;;;;5048212;28;20497;-80
2023/11/21 02:22:19;;;;;;;1.63;1.20;;;8.30;98.20;;;;;;5031588;28;20778;-80
2023/11/21 02:24:48;;;;;;;1.60;1.20;;;8.30;98.20;;;;;;5041032;28;20471;-80
2023/11/21 02:27:20;;;;;;;1.60;1.20;;;8.30;98.20;;;;;;5035477;28;20537;-80
2023/11/21 02:29:47;;;;;;;1.60;1.20;;;8.30;98.20;;;;;;5041789;28;20482;-79
2023/11/21 02:32:14;;;;;;;1.63;1.20;;;8.30;98.20;;;;;;5040043;28;20523;-80
2023/11/21 02:34:41;;;;;;;1.60;1.20;;;8.40;98.20;;;;;;5046638;28;20508;-80
2023/11/21 02:37:09;;;;;;;1.60;1.20;;;8.40;98.20;;;;;;5039833;28;20513;-80
2023/11/21 02:39:37;;;;;;;1.70;1.30;;;8.40;98.20;;;;;;5042024;28;20466;-79
2023/11/21 02:42:06;;;;;;;1.63;1.20;;;8.40;98.20;;;;;;5040794;28;20575;-80
2023/11/21 02:44:33;;;;;;;1.60;1.20;;;8.50;98.20;;;;;;5045548;28;20467;-80
2023/11/21 02:47:00;;;;;;;1.63;1.30;;;8.50;98.20;;;;;;5042720;28;20551;-80
2023/11/21 02:49:28;;;;;;;1.60;1.20;;;8.50;98.20;;;;;;5045778;28;20583;-79
2023/11/21 02:51:55;;;;;;;1.60;1.20;;;8.50;98.20;;;;;;5039442;28;20884;-81
2023/11/21 02:54:22;;;;;;;1.60;1.20;;;8.50;98.20;;;;;;5045692;28;20493;-79
2023/11/21 02:56:50;;;;;;;1.60;1.20;;;8.50;98.20;;;;;;5037445;28;20481;-80
2023/11/21 02:59:19;;;;;;;1.60;1.20;;;8.50;98.20;;;;;;5051659;28;20458;-79
2023/11/21 03:01:46;;;;;;;1.67;1.30;;;8.50;98.20;;;;;;5046503;28;20773;-80
2023/11/21 03:04:17;;;;;;;1.60;1.20;;;8.60;98.20;;;;;;5050946;28;20462;-80
2023/11/21 03:06:44;;;;;;;1.60;1.20;;;8.60;98.20;;;;;;5039671;28;20484;-80
2023/11/21 03:09:11;;;;;;;1.63;1.27;;;8.60;98.20;;;;;;5052514;28;20497;-79
2023/11/21 03:11:38;;;;;;;1.60;1.20;;;8.60;98.20;;;;;;5043431;28;20509;-79
2023/11/21 03:14:06;;;;;;;1.60;1.20;;;8.60;98.20;;;;;;5051425;28;20469;-79
2023/11/21 03:16:34;;;;;;;1.60;1.20;;;8.60;98.20;;;;;;5028489;28;20486;-79
2023/11/21 03:19:01;;;;;;;1.60;1.20;;;8.60;98.20;;;;;;5047940;28;20462;-79
2023/11/21 03:21:29;;;;;;;1.60;1.20;;;8.70;98.20;;;;;;5042339;28;20512;-79
2023/11/21 03:23:55;;;;;;;1.63;1.20;;;8.70;98.20;;;;;;5046845;28;20477;-80
2023/11/21 03:26:22;;;;;;;1.60;1.30;;;8.70;98.20;;;;;;5041291;28;20480;-79
2023/11/21 03:28:49;;;;;;;1.60;1.20;;;8.70;98.20;;;;;;5053326;28;20915;-80
2023/11/21 03:31:18;;;;;;;1.60;1.20;;;8.70;98.20;;;;;;5033900;28;20492;-79
2023/11/21 03:33:47;;;;;;;1.60;1.20;;;8.70;98.20;;;;;;5055273;28;20558;-79
2023/11/21 03:36:14;;;;;;;1.60;1.20;;;8.70;98.20;;;;;;5040452;28;20478;-79
2023/11/21 03:38:41;;;;;;;1.60;1.20;;;8.70;98.20;;;;;;5054428;28;20486;-79
2023/11/21 03:41:09;;;;;;;1.60;1.20;;;8.80;98.20;;;;;;5038171;28;20524;-79
2023/11/21 03:43:36;;;;;;;1.60;1.20;;;8.80;98.20;;;;;;5056309;28;20460;-79
2023/11/21 03:46:03;;;;;;;1.60;1.23;;;8.80;98.20;;;;;;5037885;28;20628;-79
2023/11/21 03:48:30;;;;;;;1.60;1.20;;;8.80;98.20;;;;;;5053763;28;20470;-79
2023/11/21 03:50:58;;;;;;;1.60;1.20;;;8.80;98.20;;;;;;5034498;28;21021;-79
2023/11/21 03:53:25;;;;;;;1.60;1.20;;;8.80;98.20;;;;;;5063864;28;20644;-80
2023/11/21 03:55:52;;;;;;;1.60;1.20;;;8.80;98.20;;;;;;5039713;28;20454;-80
2023/11/21 03:58:18;;;;;;;1.60;1.20;;;8.80;98.20;;;;;;5059474;28;20501;-80
2023/11/21 04:00:45;;;;;;;1.70;1.30;;;8.80;98.20;;;;;;5039578;28;21345;-79
2023/11/21 04:03:13;;;;;;;1.60;1.20;;;8.70;98.20;;;;;;5030243;28;20472;-80
2023/11/21 04:05:40;;;;;;;1.60;1.20;;;8.80;98.20;;;;;;5037189;28;20463;-80
2023/11/21 04:08:09;;;;;;;1.60;1.20;;;8.80;98.20;;;;;;5045053;28;20486;-80
2023/11/21 04:10:36;;;;;;;1.60;1.20;;;8.80;98.20;;;;;;5039976;28;20495;-80
2023/11/21 04:13:02;;;;;;;1.60;1.30;;;8.80;98.20;;;;;;5042682;28;20938;-81
2023/11/21 04:15:29;;;;;;;1.60;1.20;;;8.80;98.20;;;;;;5047095;28;21030;-79
2023/11/21 04:17:57;;;;;;;1.60;1.20;;;8.80;98.20;;;;;;5047681;28;20905;-80
2023/11/21 04:20:23;;;;;;;1.60;1.20;;;8.80;98.20;;;;;;5037564;28;20985;-80
2023/11/21 04:22:50;;;;;;;1.60;1.30;;;8.80;98.20;;;;;;5044457;28;20486;-80
2023/11/21 04:25:18;;;;;;;1.63;1.20;;;8.80;98.20;;;;;;5041083;28;20685;-80
2023/11/21 04:27:46;;;;;;;1.60;1.20;;;8.80;98.20;;;;;;5046204;28;20573;-79
2023/11/21 04:30:14;;;;;;;1.60;1.20;;;8.80;98.20;;;;;;5051164;28;20490;-80
2023/11/21 04:32:41;;;;;;;1.60;1.20;;;8.70;98.20;;;;;;5049563;28;20499;-79
2023/11/21 04:35:09;;;;;;;1.60;1.20;;;8.70;98.20;;;;;;5046857;28;20473;-79
2023/11/21 04:37:36;;;;;;;1.60;1.20;;;8.70;98.20;;;;;;5041404;28;20882;-79
2023/11/21 04:40:06;;;;;;;1.60;1.17;;;8.70;98.20;;;;;;5049718;28;20450;-79
2023/11/21 04:42:35;;;;;;;1.60;1.20;;;8.70;98.20;;;;;;5054654;28;20693;-80
2023/11/21 04:45:05;;;;;;;1.60;1.20;;;8.70;98.20;;;;;;5051078;28;20458;-80
2023/11/21 04:47:31;;;;;;;1.60;1.20;;;8.70;98.20;;;;;;5041482;28;20489;-80
2023/11/21 04:49:58;;;;;;;1.60;1.17;;;8.70;98.20;;;;;;5046451;28;20565;-79
2023/11/21 04:52:25;;;;;;;1.67;1.30;;;8.70;98.20;;;;;;5050636;28;20509;-80
2023/11/21 04:54:54;;;;;;;1.67;1.30;;;8.70;98.20;;;;;;5043025;28;20487;-79
2023/11/21 04:57:21;;;;;;;1.60;1.20;;;8.70;98.20;;;;;;5046926;28;20497;-80
2023/11/21 04:59:50;;;;;;;1.70;1.30;;;8.70;98.20;;;;;;5050546;28;20557;-80
2023/11/21 05:02:18;;;;;;;1.60;1.27;;;8.70;98.20;;;;;;5040899;28;20540;-79
2023/11/21 05:04:45;;;;;;;1.60;1.10;;;8.70;98.20;;;;;;5052852;28;20474;-79
2023/11/21 05:07:11;;;;;;;1.60;1.20;;;8.70;98.20;;;;;;5047259;28;20560;-79
2023/11/21 05:09:43;;;;;;;1.60;1.20;;;8.70;98.20;;;;;;5050115;28;20489;-80
2023/11/21 05:12:10;;;;;;;1.60;1.20;;;8.70;98.20;;;;;;5041507;28;21086;-80
2023/11/21 05:14:37;;;;;;;1.63;1.20;;;8.70;98.20;;;;;;5053803;28;20467;-79
2023/11/21 05:17:07;;;;;;;1.60;1.20;;;8.70;98.20;;;;;;5045783;28;20580;-79
2023/11/21 05:19:35;;;;;;;1.60;1.20;;;8.70;98.20;;;;;;5052077;28;20470;-80
2023/11/21 05:22:02;;;;;;;1.60;1.20;;;8.70;98.20;;;;;;5046920;28;20485;-80
2023/11/21 05:24:29;;;;;;;1.60;1.20;;;8.70;98.20;;;;;;5052594;28;20496;-82
2023/11/21 05:26:56;;;;;;;1.60;1.20;;;8.70;98.20;;;;;;5047159;28;20504;-80
2023/11/21 05:29:25;;;;;;;1.60;1.20;;;8.60;98.20;;;;;;5052454;28;20482;-80
2023/11/21 05:31:52;;;;;;;1.60;1.20;;;8.60;98.20;;;;;;5046564;28;20496;-79
2023/11/21 05:34:23;;;;;;;1.63;1.20;;;8.60;98.20;;;;;;5054675;28;20517;-79
2023/11/21 05:37:05;;;;;;;1.70;1.40;;;8.60;98.20;;;;;;5049559;28;20473;-79
2023/11/21 05:39:32;;;;;;;1.60;1.23;;;8.60;98.20;;;;;;5051799;28;20450;-79
2023/11/21 05:41:59;;;;;;;1.60;1.10;;;8.60;98.20;;;;;;5043633;28;20531;-79
2023/11/21 05:44:26;;;;;;;1.60;1.20;;;8.60;98.20;;;;;;5051364;28;20834;-79
2023/11/21 05:46:53;;;;;;;1.60;1.20;;;8.60;98.20;;;;;;5047599;28;20473;-79
2023/11/21 05:49:22;;;;;;;1.60;1.20;;;8.60;98.20;;;;;;5053341;28;20876;-80
2023/11/21 05:51:53;;;;;;;1.60;1.20;;;8.60;98.20;;;;;;5042117;28;20930;-79
2023/11/21 05:54:23;;;;;;;1.60;1.30;;;8.60;98.20;;;;;;5051746;28;20457;-79
2023/11/21 05:56:50;;;;;;;1.60;1.20;;;8.60;98.20;;;;;;5049163;28;20540;-81
2023/11/21 05:59:17;;;;;;;1.60;1.20;;;8.60;98.20;;;;;;5057468;28;20497;-80
2023/11/21 06:01:45;;;;;;;1.63;1.20;;;8.60;98.20;;;;;;5044737;28;20572;-80
2023/11/21 06:04:12;;;;;;;1.63;1.20;;;8.60;98.20;;;;;;5054481;28;20465;-80
2023/11/21 06:06:40;;;;;;;1.60;1.20;;;8.50;98.20;;;;;;5032156;28;20485;-80
2023/11/21 06:09:08;;;;;;;1.60;1.20;;;8.50;98.20;;;;;;5047055;28;20558;-80
2023/11/21 06:11:35;;;;;;;1.70;1.30;;;8.50;98.20;;;;;;5025425;28;20485;-80
2023/11/21 06:14:03;;;;;;;1.63;1.30;;;8.50;98.20;;;;;;5036452;28;20463;-79
2023/11/21 06:16:30;;;;;;;1.67;1.20;;;8.50;98.20;;;;;;5028342;28;20490;-80
2023/11/21 06:18:57;;;;;;;1.60;1.20;;;8.50;98.20;;;;;;5056431;28;20557;-80
2023/11/21 06:21:24;;;;;;;1.60;1.20;;;8.50;98.20;;;;;;5036396;28;20484;-80
2023/11/21 06:23:52;;;;;;;1.60;1.20;;;8.60;98.20;;;;;;5053357;28;20476;-80
2023/11/21 06:26:20;;;;;;;1.60;1.20;;;8.60;98.20;;;;;;5030140;28;21027;-78
2023/11/21 06:28:47;;;;;;;1.60;1.20;;;8.60;98.20;;;;;;5054748;28;20462;-80
2023/11/21 06:31:14;;;;;;;1.60;1.20;;;8.60;98.20;;;;;;5037372;28;20671;-80
2023/11/21 06:33:41;;;;;;;1.60;1.30;;;8.60;98.20;;;;;;5059509;28;20461;-80
2023/11/21 06:36:11;;;;;;;1.60;1.20;;;8.60;98.20;;;;;;5040073;28;20968;-80
2023/11/21 06:38:44;;;;;;;1.60;1.20;;;8.60;98.20;;;;;;5063617;28;20469;-80
2023/11/21 06:41:15;;;;;;;1.60;1.20;;;8.60;98.20;;;;;;5039038;28;20568;-78
2023/11/21 06:43:46;;;;;;;1.60;1.20;;;8.60;98.20;;;;;;5051408;28;20712;-78
2023/11/21 06:46:14;;;;;;;1.63;1.20;;;8.70;98.20;;;;;;5040975;28;20686;-78
2023/11/21 06:48:41;;;;;;;1.60;1.20;;;8.70;98.20;;;;;;5058048;28;20489;-78
2023/11/21 06:51:08;;;;;;;1.60;1.20;;;8.70;98.20;;;;;;5041880;28;20482;-78
2023/11/21 06:53:35;;;;;;;1.60;1.20;;;8.70;98.20;;;;;;5062947;28;20462;-79
2023/11/21 06:56:01;;;;;;;1.60;1.20;;;8.70;98.20;;;;;;5031304;28;20486;-79
2023/11/21 06:58:30;;;;;;;1.60;1.20;;;8.70;98.20;;;;;;5054480;28;20850;-80
2023/11/21 07:00:58;;;;;;;1.60;1.20;;;8.80;98.20;;;;;;5042960;28;20549;-80
2023/11/21 07:03:26;;;;;;;1.60;1.13;;;8.80;98.20;;;;;;5052249;28;20980;-78
2023/11/21 07:05:52;;;;;;;1.70;1.20;;;8.80;98.20;;;;;;5035940;28;20537;-78
2023/11/21 07:08:19;;;;;;;1.60;1.20;;;8.80;98.20;;;;;;5059602;28;20520;-78
2023/11/21 07:10:47;;;;;;;1.60;1.10;;;8.80;98.20;;;;;;5045722;28;20486;-78
2023/11/21 07:13:13;;;;;;;1.60;1.30;;;8.80;98.20;;;;;;5031967;28;20481;-77
2023/11/21 07:15:42;;;;;;;1.60;1.20;;;8.80;98.20;;;;;;5050621;28;20468;-78
2023/11/21 07:18:08;;;;;;;1.60;1.20;;;8.90;98.20;;;;;;5049502;28;20492;-79
2023/11/21 07:20:35;;;;;;;1.63;1.30;;;8.90;98.20;;;;;;5044415;28;20479;-78
2023/11/21 07:23:03;;;;;;;1.60;1.13;;;8.90;98.20;;;;;;5038901;28;20474;-78
2023/11/21 07:25:30;;;;;;;1.60;1.20;;;8.90;98.20;;;;;;5035054;28;20823;-78
2023/11/21 07:27:57;;;;;;;1.60;1.10;;;9.00;98.20;;;;;;5047638;28;20917;-78
2023/11/21 07:30:24;;;;;;;1.60;1.20;;;9.00;98.20;;;;;;5032596;28;20849;-79
2023/11/21 07:32:52;;;;;;;1.60;1.20;;;9.00;98.20;;;;;;5037873;28;20533;-78
2023/11/21 07:35:18;;;;;;;1.60;1.10;;;9.00;98.20;;;;;;5022732;28;20489;-77
2023/11/21 07:37:47;;;;;;;1.60;1.20;;;9.00;98.20;;;;;;5048399;28;20473;-77
2023/11/21 07:40:14;;;;;;;1.60;1.20;;;9.10;98.20;;;;;;5026903;28;20459;-78
2023/11/21 07:42:42;;;;;;;1.60;1.20;;;9.10;98.20;;;;;;5048551;28;20545;-77
2023/11/21 07:45:09;;;;;;;1.60;1.20;;;9.10;98.20;;;;;;5028027;28;21001;-78
2023/11/21 07:47:36;;;;;;;1.60;1.20;;;9.10;98.20;;;;;;5044777;28;20473;-77
2023/11/21 07:50:07;;;;;;;1.60;1.10;;;9.10;98.20;;;;;;5030487;28;20491;-77
2023/11/21 07:52:34;;;;;;;1.70;1.20;;;9.10;98.20;;;;;;5042376;28;20496;-78
2023/11/21 07:55:01;;;;;;;1.60;1.20;;;9.20;98.20;;;;;;5032594;28;20543;-78
2023/11/21 07:57:28;;;;;;;1.60;1.20;;;9.20;98.20;;;;;;5044750;28;20521;-78
2023/11/21 07:59:55;;;;;;;1.60;1.20;;;9.20;98.20;;;;;;5033380;28;20472;-76
2023/11/21 08:02:22;;;;;;;1.87;1.67;;;9.30;98.20;;;;;;5027222;28;20969;-76
2023/11/21 08:04:50;;;;;;;1.60;1.10;;;9.30;98.20;;;;;;5027876;28;20493;-76
2023/11/21 08:07:18;;;;;;;1.60;1.10;;;9.30;98.20;;;;;;5040654;28;20589;-75
2023/11/21 08:09:46;;;;;;;1.60;1.10;;;9.40;98.20;;;;;;5033232;28;20839;-76
2023/11/21 08:12:15;;;;;;;1.60;1.20;;;9.40;98.20;;;;;;5036973;28;20492;-75
2023/11/21 08:14:42;;;;;;;1.60;1.10;;;9.40;98.20;;;;;;5034980;28;20480;-76
2023/11/21 08:17:10;;;;;;;1.60;1.10;;;9.50;98.20;;;;;;5037539;28;20477;-76
2023/11/21 08:19:36;;;;;;;1.60;1.10;;;9.50;98.20;;;;;;5035463;28;20618;-76
2023/11/21 08:22:04;;;;;;;1.60;1.10;;;9.50;98.20;;;;;;5037265;28;20487;-76
2023/11/21 08:24:32;;;;;;;1.60;1.20;;;9.50;98.20;;;;;;5036483;28;20529;-76
2023/11/21 08:26:59;;;;;;;1.60;1.10;;;9.50;98.20;;;;;;5033016;28;20481;-76
2023/11/21 08:29:26;;;;;;;1.60;1.20;;;9.50;98.20;;;;;;5038622;28;20950;-76
2023/11/21 08:31:53;;;;;;;1.60;1.13;;;9.50;98.20;;;;;;5033981;28;20484;-77
2023/11/21 08:34:20;;;;;;;1.60;1.17;;;9.50;98.20;;;;;;5040615;28;20463;-77
2023/11/21 08:36:47;;;;;;;1.60;1.20;;;9.50;98.20;;;;;;5028323;28;20477;-76
2023/11/21 08:39:16;;;;;;;1.60;1.10;;;9.50;98.20;;;;;;5041990;28;20469;-76
2023/11/21 08:41:44;;;;;;;1.60;1.10;;;9.50;98.20;;;;;;5030818;28;20489;-76
2023/11/21 08:44:11;;;;;;;1.60;1.20;;;9.50;98.20;;;;;;5044853;28;20475;-76
2023/11/21 08:46:39;;;;;;;1.60;1.20;;;9.50;98.20;;;;;;5025788;28;20488;-76
2023/11/21 08:49:06;;;;;;;1.60;1.13;;;9.60;98.20;;;;;;5043382;28;20840;-76
2023/11/21 08:51:32;;;;;;;1.60;1.20;;;9.60;98.20;;;;;;5019859;28;20483;-76
2023/11/21 08:54:02;;;;;;;1.60;1.10;;;9.60;98.20;;;;;;5033761;28;20471;-76
2023/11/21 08:56:29;;;;;;;1.60;1.10;;;9.60;98.20;;;;;;5021136;28;20918;-76
2023/11/21 08:58:57;;;;;;;1.60;1.20;;;9.70;98.20;;;;;;5032943;28;20478;-76
2023/11/21 09:01:24;;;;;;;1.63;1.20;;;9.70;98.20;;;;;;5016387;28;21060;-76
2023/11/21 09:03:51;;;;;;;1.60;1.13;;;9.70;98.20;;;;;;5033031;28;20459;-75
2023/11/21 09:06:19;;;;;;;1.60;1.20;;;9.70;98.20;;;;;;5013457;28;20481;-75
2023/11/21 09:08:46;;;;;;;1.70;1.50;;;9.70;98.20;;;;;;5036247;28;20495;-76
2023/11/21 09:11:13;;;;;;;1.63;1.20;;;9.70;98.20;;;;;;5018957;28;20610;-76
2023/11/21 09:13:40;;;;;;;1.70;1.30;;;9.80;98.20;;;;;;5035131;28;20459;-76
2023/11/21 09:16:10;;;;;;;1.60;1.10;;;9.80;98.20;;;;;;5014799;28;20479;-76
2023/11/21 09:18:38;;;;;;;1.60;1.10;;;9.90;98.20;;;;;;5035194;28;20554;-75
2023/11/21 09:21:05;;;;;;;1.60;1.13;;;9.90;98.20;;;;;;5014609;28;21092;-75
2023/11/21 09:23:33;;;;;;;1.67;1.20;;;9.90;98.20;;;;;;5033554;28;20467;-76
2023/11/21 09:26:00;;;;;;;1.60;1.10;;;9.90;98.20;;;;;;5017253;28;21012;-76
2023/11/21 09:28:28;;;;;;;1.60;1.10;;;9.90;98.20;;;;;;5039274;28;20534;-76
2023/11/21 09:30:55;;;;;;;1.60;1.10;;;10.00;98.20;;;;;;5016701;28;20487;-77
2023/11/21 09:33:24;;;;;;;1.60;1.10;;;10.00;98.20;;;;;;5038798;28;20983;-76
2023/11/21 09:35:52;;;;;;;1.60;1.10;;;10.00;98.20;;;;;;5013368;28;20693;-76
2023/11/21 09:38:19;;;;;;;1.60;1.10;;;10.00;98.20;;;;;;5035792;28;20472;-76
2023/11/21 09:40:47;;;;;;;1.60;1.10;;;10.00;98.20;;;;;;5026201;28;20854;-76
2023/11/21 09:43:18;;;;;;;1.60;1.10;;;10.10;98.20;;;;;;5013770;28;20509;-76
2023/11/21 09:45:50;;;;;;;1.60;1.10;;;10.00;98.20;;;;;;5022636;28;20471;-76
2023/11/21 09:48:19;;;;;;;1.60;1.10;;;10.10;98.20;;;;;;5014089;28;20474;-75
2023/11/21 09:50:48;;;;;;;1.60;1.17;;;10.10;98.20;;;;;;5022058;28;20491;-77
2023/11/21 09:53:20;;;;;;;1.67;1.20;;;10.10;98.20;;;;;;5021583;28;20537;-76
2023/11/21 09:55:50;;;;;;;1.60;1.13;;;10.20;98.20;;;;;;5022378;28;20463;-77
2023/11/21 09:58:21;;;;;;;1.60;1.10;;;10.20;98.20;;;;;;5056752;28;20470;-76
2023/11/21 10:00:50;;;;;;;1.60;1.10;;;10.30;98.20;;;;;;5038802;28;20479;-77
2023/11/21 10:03:17;;;;;;;1.60;1.10;;;10.30;98.20;;;;;;5058414;28;20479;-77
2023/11/21 10:05:45;;;;;;;1.60;1.10;;;10.30;98.20;;;;;;5046551;28;20960;-77
2023/11/21 10:08:14;;;;;;;1.60;1.10;;;10.40;98.20;;;;;;5015091;28;20483;-77
2023/11/21 10:10:45;;;;;;;1.60;1.10;;;10.50;98.20;;;;;;5026090;28;20487;-77
2023/11/21 10:13:16;;;;;;;1.60;1.10;;;10.50;98.20;;;;;;5024543;28;20483;-76
2023/11/21 10:15:48;;;;;;;1.60;1.10;;;10.50;98.20;;;;;;5018303;28;20468;-77
2023/11/21 10:18:16;;;;;;;1.60;1.03;;;10.50;98.20;;;;;;5010790;28;21002;-76
2023/11/21 10:20:46;;;;;;;1.60;1.10;;;10.60;98.20;;;;;;5022282;28;20862;-77
2023/11/21 10:23:16;;;;;;;1.60;1.10;;;10.60;98.20;;;;;;5011280;28;20481;-76
2023/11/21 10:25:43;;;;;;;1.60;1.10;;;10.60;98.20;;;;;;5021434;28;20522;-76
2023/11/21 10:28:11;;;;;;;1.63;1.10;;;10.60;98.20;;;;;;5047049;28;20478;-76
2023/11/21 10:30:39;;;;;;;1.60;1.10;;;10.60;98.20;;;;;;5037705;28;20582;-76
2023/11/21 10:33:09;;;;;;;1.60;1.10;;;10.70;98.20;;;;;;5045569;28;20865;-76
2023/11/21 10:35:54;;;;;;;1.60;1.10;;;10.70;98.20;;;;;;5043073;28;20463;-76
2023/11/21 10:38:24;;;;;;;1.60;1.10;;;10.70;98.20;;;;;;5010522;28;20482;-76
2023/11/21 10:40:52;;;;;;;1.60;1.00;;;10.70;98.20;;;;;;5010176;28;21241;-77
2023/11/21 10:43:19;;;;;;;1.60;1.00;;;10.70;98.20;;;;;;5036551;28;20471;-77
2023/11/21 10:45:46;;;;;;;1.60;1.10;;;10.70;98.20;;;;;;5020726;28;20471;-76
2023/11/21 10:48:16;;;;;;;1.60;1.10;;;10.70;98.20;;;;;;5010295;28;20851;-77
2023/11/21 10:50:44;;;;;;;1.60;1.07;;;10.70;98.20;;;;;;5017364;28;20495;-76
2023/11/21 10:53:12;;;;;;;1.60;1.00;;;10.70;98.20;;;;;;5024095;28;20700;-77
2023/11/21 10:55:43;;;;;;;1.60;1.00;;;10.70;98.20;;;;;;5021611;28;20485;-79
2023/11/21 10:58:14;;;;;;;1.60;1.10;;;10.70;98.20;;;;;;5031527;28;20478;-79
2023/11/21 11:00:43;;;;;;;1.60;1.10;;;10.70;98.20;;;;;;5024509;28;24221;-78
2023/11/21 11:03:13;;;;;;;1.60;1.03;;;10.70;98.20;;;;;;5028528;28;20483;-79
2023/11/21 11:05:41;;;;;;;1.60;1.10;;;10.70;98.20;;;;;;5022070;28;20459;-80
2023/11/21 11:08:12;;;;;;;1.60;1.10;;;10.70;98.20;;;;;;5049320;28;20566;-79
2023/11/21 11:10:41;;;;;;;1.60;1.10;;;10.70;98.20;;;;;;5039947;28;20478;-78
2023/11/21 11:13:08;;;;;;;1.60;1.20;;;10.80;98.20;;;;;;5047535;28;20475;-78
2023/11/21 11:15:35;;;;;;;1.60;1.00;;;10.80;98.20;;;;;;5038702;28;20561;-79
2023/11/21 11:18:06;;;;;;;1.60;1.10;;;10.90;98.20;;;;;;5049795;28;20492;-79
2023/11/21 11:20:37;;;;;;;1.60;1.10;;;10.90;98.20;;;;;;5041964;28;20528;-80
2023/11/21 11:23:23;;;;;;;1.60;1.00;;;11.00;98.20;;;;;;5052879;28;21066;-78
2023/11/21 11:26:07;;;;;;;1.60;1.10;;;10.90;98.20;;;;;;5038935;28;20538;-79
2023/11/21 11:28:47;;;;;;;1.60;1.07;;;11.00;98.20;;;;;;5057457;28;20973;-80
2023/11/21 11:31:28;;;;;;;1.60;1.10;;;11.00;98.20;;;;;;5040947;28;20485;-79
2023/11/21 11:34:00;;;;;;;1.60;1.10;;;11.00;98.20;;;;;;5056364;28;20480;-79
2023/11/21 11:36:32;;;;;;;1.60;1.00;;;11.00;98.20;;;;;;5041109;28;20549;-78
2023/11/21 11:39:01;;;;;;;1.60;1.10;;;11.00;98.20;;;;;;5055724;28;20502;-79
2023/11/21 11:41:34;;;;;;;1.60;1.10;;;11.00;98.20;;;;;;5039031;28;20530;-78
2023/11/21 11:44:01;;;;;;;1.60;1.10;;;11.00;98.20;;;;;;5054879;28;20492;-79
2023/11/21 11:46:46;;;;;;;1.60;1.00;;;11.10;98.20;;;;;;5036034;28;20568;-78
2023/11/21 11:49:28;;;;;;;1.60;1.00;;;11.10;98.20;;;;;;5043443;28;20475;-77
2023/11/21 11:52:27;;;;;;;1.60;1.10;;;11.10;98.20;;;;;;5043433;28;20492;-77
2023/11/21 11:54:56;;;;;;;1.60;1.10;;;11.10;98.20;;;;;;5039268;28;20471;-77
2023/11/21 11:57:27;;;;;;;1.60;1.10;;;11.00;98.20;;;;;;5049721;28;20532;-77
2023/11/21 12:00:19;;;;;;;1.60;1.10;;;11.00;98.20;;;;;;5046351;28;20498;-77
2023/11/21 12:02:48;;;;;;;1.60;1.10;;;11.00;98.20;;;;;;5051180;28;20553;-77
2023/11/21 12:05:18;;;;;;;1.60;1.10;;;11.00;98.20;;;;;;5047160;28;20570;-77
2023/11/21 12:07:52;;;;;;;1.60;1.20;;;11.00;98.20;;;;;;5050728;28;20504;-77
2023/11/21 12:10:24;;;;;;;1.60;1.00;;;11.10;98.20;;;;;;5046935;28;20499;-76
2023/11/21 12:12:54;;;;;;;1.60;1.00;;;11.10;98.20;;;;;;5048321;28;20473;-77
2023/11/21 12:15:30;;;;;;;1.60;1.00;;;11.10;98.20;;;;;;5043004;28;20620;-76
2023/11/21 12:18:05;;;;;;;1.60;1.10;;;11.20;98.20;;;;;;5043998;28;20481;-77
2023/11/21 12:20:38;;;;;;;1.60;1.10;;;11.20;98.20;;;;;;5045386;28;20462;-78
2023/11/21 12:23:08;;;;;;;1.60;1.10;;;11.30;98.20;;;;;;5056080;28;20570;-79
2023/11/21 12:25:36;;;;;;;1.60;1.00;;;11.40;98.20;;;;;;5042725;28;20476;-78
2023/11/21 12:28:05;;;;;;;1.60;1.00;;;11.40;98.20;;;;;;5051624;28;20492;-77
2023/11/21 12:30:35;;;;;;;1.60;1.30;;;11.40;98.20;;;;;;5043463;28;21114;-77
2023/11/21 12:33:03;;;;;;;1.60;1.10;;;11.50;98.20;;;;;;5050774;28;20478;-78
2023/11/21 12:35:34;;;;;;;1.60;1.00;;;11.50;98.20;;;;;;5044271;28;20596;-80
2023/11/21 12:38:03;;;;;;;1.60;1.00;;;11.50;98.20;;;;;;5054041;28;20876;-78
2023/11/21 12:40:30;;;;;;;1.60;1.20;;;11.60;98.20;;;;;;5045558;28;20489;-80
2023/11/21 12:42:58;;;;;;;1.60;1.10;;;11.60;98.20;;;;;;5050735;28;21153;-79
2023/11/21 12:45:28;;;;;;;1.90;1.70;;;11.60;98.20;;;;;;5046943;28;20466;-79
2023/11/21 12:47:59;;;;;;;1.60;1.00;;;11.60;98.20;;;;;;5048669;28;20563;-80
2023/11/21 12:50:28;;;;;;;1.60;1.03;;;11.50;98.20;;;;;;5043451;28;20545;-79
2023/11/21 12:52:59;;;;;;;1.60;1.00;;;11.50;98.20;;;;;;5043547;28;20478;-77
2023/11/21 12:55:26;;;;;;;1.60;1.00;;;11.60;98.20;;;;;;5041166;28;20545;-77
2023/11/21 12:57:55;;;;;;;1.60;1.10;;;11.60;98.20;;;;;;5047572;28;20477;-77
2023/11/21 13:00:32;;;;;;;1.60;1.10;;;11.70;98.20;;;;;;5045092;28;20545;-76
2023/11/21 13:03:00;;;;;;;1.60;1.00;;;11.70;98.20;;;;;;5044445;28;20482;-78